sensor_id;sensor_type;location;lat;lon;timestamp;temperature;humidity
1468;DHT22;727;48.892;9.544;2023-02-15T00:01:31;-0.60;99.90
1468;DHT22;727;48.892;9.544;2023-02-15T00:03:58;-0.70;99.90
1468;DHT22;727;48.892;9.544;2023-02-15T00:06:25;-0.70;99.90
1468;DHT22;727;48.892;9.544;2023-02-15T00:08:53;-0.80;99.90
1468;DHT22;727;48.892;9.544;2023-02-15T00:11:21;-0.70;99.90
1468;DHT22;727;48.892;9.544;2023-02-15T00:14:05;-0.80;99.90
1468;DHT22;727;48.892;9.544;2023-02-15T00:16:34;-0.80;99.90
1468;DHT22;727;48.892;9.544;2023-02-15T00:19:01;-0.80;99.90
1468;DHT22;727;48.892;9.544;2023-02-15T00:21:29;-0.90;99.90
1468;DHT22;727;48.892;9.544;2023-02-15T00:23:56;-0.90;99.90
1468;DHT22;727;48.892;9.544;2023-02-15T00:26:23;-0.90;99.90
1468;DHT22;727;48.892;9.544;2023-02-15T00:28:50;-0.90;99.90
1468;DHT22;727;48.892;9.544;2023-02-15T00:31:17;-0.90;99.90
1468;DHT22;727;48.892;9.544;2023-02-15T00:33:46;-0.90;99.90
1468;DHT22;727;48.892;9.544;2023-02-15T00:36:13;-0.90;99.90
1468;DHT22;727;48.892;9.544;2023-02-15T00:38:40;-0.90;99.90
1468;DHT22;727;48.892;9.544;2023-02-15T00:41:08;-0.90;99.90
1468;DHT22;727;48.892;9.544;2023-02-15T00:43:36;-0.90;99.90
1468;DHT22;727;48.892;9.544;2023-02-15T00:46:04;-1.00;99.90
1468;DHT22;727;48.892;9.544;2023-02-15T00:48:31;-1.00;99.90
1468;DHT22;727;48.892;9.544;2023-02-15T00:51:00;-1.10;99.90
1468;DHT22;727;48.892;9.544;2023-02-15T00:53:28;-1.10;99.90
1468;DHT22;727;48.892;9.544;2023-02-15T00:55:55;-1.10;99.90
1468;DHT22;727;48.892;9.544;2023-02-15T00:58:22;-1.00;99.90
1468;DHT22;727;48.892;9.544;2023-02-15T01:00:49;-1.00;99.90
1468;DHT22;727;48.892;9.544;2023-02-15T01:03:17;-1.00;99.90
1468;DHT22;727;48.892;9.544;2023-02-15T01:05:44;-1.00;99.90
1468;DHT22;727;48.892;9.544;2023-02-15T01:08:14;-1.10;99.90
1468;DHT22;727;48.892;9.544;2023-02-15T01:10:41;-1.10;99.90
1468;DHT22;727;48.892;9.544;2023-02-15T01:13:09;-1.20;99.90
1468;DHT22;727;48.892;9.544;2023-02-15T01:15:36;-1.20;99.90
1468;DHT22;727;48.892;9.544;2023-02-15T01:18:03;-1.30;99.90
1468;DHT22;727;48.892;9.544;2023-02-15T01:20:33;-1.30;99.90
1468;DHT22;727;48.892;9.544;2023-02-15T01:23:00;-1.30;99.90
1468;DHT22;727;48.892;9.544;2023-02-15T01:25:28;-1.30;99.90
1468;DHT22;727;48.892;9.544;2023-02-15T01:27:55;-1.40;99.90
1468;DHT22;727;48.892;9.544;2023-02-15T01:30:22;-1.40;99.90
1468;DHT22;727;48.892;9.544;2023-02-15T01:32:49;-1.40;99.90
1468;DHT22;727;48.892;9.544;2023-02-15T01:35:15;-1.40;99.90
1468;DHT22;727;48.892;9.544;2023-02-15T01:37:42;-1.40;99.90
1468;DHT22;727;48.892;9.544;2023-02-15T01:40:13;-1.40;99.90
1468;DHT22;727;48.892;9.544;2023-02-15T01:42:42;-1.40;99.90
1468;DHT22;727;48.892;9.544;2023-02-15T01:45:18;-1.40;99.90
1468;DHT22;727;48.892;9.544;2023-02-15T01:47:49;-1.40;99.90
1468;DHT22;727;48.892;9.544;2023-02-15T01:50:21;-1.40;99.90
1468;DHT22;727;48.892;9.544;2023-02-15T01:52:54;-1.50;99.90
1468;DHT22;727;48.892;9.544;2023-02-15T01:55:25;-1.50;99.90
1468;DHT22;727;48.892;9.544;2023-02-15T01:58:03;-1.50;99.90
1468;DHT22;727;48.892;9.544;2023-02-15T02:00:30;-1.50;99.90
1468;DHT22;727;48.892;9.544;2023-02-15T02:02:58;-1.50;99.90
1468;DHT22;727;48.892;9.544;2023-02-15T02:05:25;-1.50;99.90
1468;DHT22;727;48.892;9.544;2023-02-15T02:07:54;-1.50;99.90
1468;DHT22;727;48.892;9.544;2023-02-15T02:10:24;-1.40;99.90
1468;DHT22;727;48.892;9.544;2023-02-15T02:12:54;-1.50;99.90
1468;DHT22;727;48.892;9.544;2023-02-15T02:15:29;-1.50;99.90
1468;DHT22;727;48.892;9.544;2023-02-15T02:18:07;-1.50;99.90
1468;DHT22;727;48.892;9.544;2023-02-15T02:23:38;-1.50;99.90
1468;DHT22;727;48.892;9.544;2023-02-15T02:26:37;-1.50;99.90
1468;DHT22;727;48.892;9.544;2023-02-15T02:33:01;-1.40;99.90
1468;DHT22;727;48.892;9.544;2023-02-15T02:35:37;-1.50;99.90
1468;DHT22;727;48.892;9.544;2023-02-15T02:38:10;-1.50;99.90
1468;DHT22;727;48.892;9.544;2023-02-15T02:40:45;-1.50;99.90
1468;DHT22;727;48.892;9.544;2023-02-15T02:43:18;-1.50;99.90
1468;DHT22;727;48.892;9.544;2023-02-15T02:45:52;-1.50;99.90
1468;DHT22;727;48.892;9.544;2023-02-15T02:48:24;-1.60;99.90
1468;DHT22;727;48.892;9.544;2023-02-15T02:50:52;-1.60;99.90
1468;DHT22;727;48.892;9.544;2023-02-15T02:53:19;-1.60;99.90
1468;DHT22;727;48.892;9.544;2023-02-15T02:55:47;-1.60;99.90
1468;DHT22;727;48.892;9.544;2023-02-15T02:58:19;-1.60;99.90
1468;DHT22;727;48.892;9.544;2023-02-15T03:00:49;-1.70;99.90
1468;DHT22;727;48.892;9.544;2023-02-15T03:03:23;-1.70;99.90
1468;DHT22;727;48.892;9.544;2023-02-15T03:05:54;-1.80;99.90
1468;DHT22;727;48.892;9.544;2023-02-15T03:08:25;-1.80;99.90
1468;DHT22;727;48.892;9.544;2023-02-15T03:10:55;-1.80;99.90
1468;DHT22;727;48.892;9.544;2023-02-15T03:13:24;-1.80;99.90
1468;DHT22;727;48.892;9.544;2023-02-15T03:15:52;-1.80;99.90
1468;DHT22;727;48.892;9.544;2023-02-15T03:18:40;-1.90;99.90
1468;DHT22;727;48.892;9.544;2023-02-15T03:21:08;-1.90;99.90
1468;DHT22;727;48.892;9.544;2023-02-15T03:23:49;-1.90;99.90
1468;DHT22;727;48.892;9.544;2023-02-15T03:26:18;-1.90;99.90
1468;DHT22;727;48.892;9.544;2023-02-15T03:28:48;-1.90;99.90
1468;DHT22;727;48.892;9.544;2023-02-15T03:31:18;-1.90;99.90
1468;DHT22;727;48.892;9.544;2023-02-15T03:33:54;-1.90;99.90
1468;DHT22;727;48.892;9.544;2023-02-15T03:36:24;-1.90;99.90
1468;DHT22;727;48.892;9.544;2023-02-15T03:39:01;-1.90;99.90
1468;DHT22;727;48.892;9.544;2023-02-15T03:41:33;-2.00;99.90
1468;DHT22;727;48.892;9.544;2023-02-15T03:44:05;-2.00;99.90
1468;DHT22;727;48.892;9.544;2023-02-15T03:46:37;-2.10;99.90
1468;DHT22;727;48.892;9.544;2023-02-15T03:49:11;-2.10;99.90
1468;DHT22;727;48.892;9.544;2023-02-15T03:51:43;-2.00;99.90
1468;DHT22;727;48.892;9.544;2023-02-15T03:54:14;-2.00;99.90
1468;DHT22;727;48.892;9.544;2023-02-15T03:57:02;-2.00;99.90
1468;DHT22;727;48.892;9.544;2023-02-15T03:59:46;-2.10;99.90
1468;DHT22;727;48.892;9.544;2023-02-15T04:02:36;-2.10;99.90
1468;DHT22;727;48.892;9.544;2023-02-15T04:05:06;-2.10;99.90
1468;DHT22;727;48.892;9.544;2023-02-15T04:07:32;-2.10;99.90
1468;DHT22;727;48.892;9.544;2023-02-15T04:09:59;-2.10;99.90
1468;DHT22;727;48.892;9.544;2023-02-15T04:12:43;-2.10;99.90
1468;DHT22;727;48.892;9.544;2023-02-15T04:15:12;-2.10;99.90
1468;DHT22;727;48.892;9.544;2023-02-15T04:17:55;-2.10;99.90
1468;DHT22;727;48.892;9.544;2023-02-15T04:20:23;-2.10;99.90
1468;DHT22;727;48.892;9.544;2023-02-15T04:23:07;-2.10;99.90
1468;DHT22;727;48.892;9.544;2023-02-15T04:25:52;-2.10;99.90
1468;DHT22;727;48.892;9.544;2023-02-15T04:28:18;-2.10;99.90
1468;DHT22;727;48.892;9.544;2023-02-15T04:30:46;-2.10;99.90
1468;DHT22;727;48.892;9.544;2023-02-15T04:33:13;-2.20;99.90
1468;DHT22;727;48.892;9.544;2023-02-15T04:35:43;-2.20;99.90
1468;DHT22;727;48.892;9.544;2023-02-15T04:38:11;-2.30;99.90
1468;DHT22;727;48.892;9.544;2023-02-15T04:40:37;-2.20;99.90
1468;DHT22;727;48.892;9.544;2023-02-15T04:43:04;-2.20;99.90
1468;DHT22;727;48.892;9.544;2023-02-15T04:45:31;-2.20;99.90
1468;DHT22;727;48.892;9.544;2023-02-15T04:47:58;-2.20;99.90
1468;DHT22;727;48.892;9.544;2023-02-15T04:50:24;-2.20;99.90
1468;DHT22;727;48.892;9.544;2023-02-15T04:52:53;-2.30;99.90
1468;DHT22;727;48.892;9.544;2023-02-15T04:55:19;-2.30;99.90
1468;DHT22;727;48.892;9.544;2023-02-15T04:57:46;-2.30;99.90
1468;DHT22;727;48.892;9.544;2023-02-15T05:00:13;-2.30;99.90
1468;DHT22;727;48.892;9.544;2023-02-15T05:02:40;-2.40;99.90
1468;DHT22;727;48.892;9.544;2023-02-15T05:05:07;-2.40;99.90
1468;DHT22;727;48.892;9.544;2023-02-15T05:07:34;-2.40;99.90
1468;DHT22;727;48.892;9.544;2023-02-15T05:10:03;-2.40;99.90
1468;DHT22;727;48.892;9.544;2023-02-15T05:12:30;-2.50;99.90
1468;DHT22;727;48.892;9.544;2023-02-15T05:14:57;-2.40;99.90
1468;DHT22;727;48.892;9.544;2023-02-15T05:17:23;-2.50;99.90
1468;DHT22;727;48.892;9.544;2023-02-15T05:19:50;-2.50;99.90
1468;DHT22;727;48.892;9.544;2023-02-15T05:22:17;-2.40;99.90
1468;DHT22;727;48.892;9.544;2023-02-15T05:24:44;-2.40;99.90
1468;DHT22;727;48.892;9.544;2023-02-15T05:27:29;-2.40;99.90
1468;DHT22;727;48.892;9.544;2023-02-15T05:30:13;-2.40;99.90
1468;DHT22;727;48.892;9.544;2023-02-15T05:32:40;-2.40;99.90
1468;DHT22;727;48.892;9.544;2023-02-15T05:35:07;-2.40;99.90
1468;DHT22;727;48.892;9.544;2023-02-15T05:37:34;-2.50;99.90
1468;DHT22;727;48.892;9.544;2023-02-15T05:40:01;-2.50;99.90
1468;DHT22;727;48.892;9.544;2023-02-15T05:42:29;-2.50;99.90
1468;DHT22;727;48.892;9.544;2023-02-15T05:44:55;-2.50;99.90
1468;DHT22;727;48.892;9.544;2023-02-15T05:47:22;-2.50;99.90
1468;DHT22;727;48.892;9.544;2023-02-15T05:49:49;-2.50;99.90
1468;DHT22;727;48.892;9.544;2023-02-15T05:52:16;-2.50;99.90
1468;DHT22;727;48.892;9.544;2023-02-15T05:54:43;-2.50;99.90
1468;DHT22;727;48.892;9.544;2023-02-15T05:57:10;-2.50;99.90
1468;DHT22;727;48.892;9.544;2023-02-15T05:59:38;-2.50;99.90
1468;DHT22;727;48.892;9.544;2023-02-15T06:02:04;-2.50;99.90
1468;DHT22;727;48.892;9.544;2023-02-15T06:04:32;-2.50;99.90
1468;DHT22;727;48.892;9.544;2023-02-15T06:06:59;-2.50;99.90
1468;DHT22;727;48.892;9.544;2023-02-15T06:09:25;-2.50;99.90
1468;DHT22;727;48.892;9.544;2023-02-15T06:11:52;-2.50;99.90
1468;DHT22;727;48.892;9.544;2023-02-15T06:14:19;-2.50;99.90
1468;DHT22;727;48.892;9.544;2023-02-15T06:16:47;-2.50;99.90
1468;DHT22;727;48.892;9.544;2023-02-15T06:19:14;-2.50;99.90
1468;DHT22;727;48.892;9.544;2023-02-15T06:21:41;-2.50;99.90
1468;DHT22;727;48.892;9.544;2023-02-15T06:24:08;-2.50;99.90
1468;DHT22;727;48.892;9.544;2023-02-15T06:26:35;-2.50;99.90
1468;DHT22;727;48.892;9.544;2023-02-15T06:29:02;-2.50;99.90
1468;DHT22;727;48.892;9.544;2023-02-15T06:31:28;-2.60;99.90
1468;DHT22;727;48.892;9.544;2023-02-15T06:33:57;-2.50;99.90
1468;DHT22;727;48.892;9.544;2023-02-15T06:36:26;-2.60;99.90
1468;DHT22;727;48.892;9.544;2023-02-15T06:38:53;-2.60;99.90
1468;DHT22;727;48.892;9.544;2023-02-15T06:41:20;-2.60;99.90
1468;DHT22;727;48.892;9.544;2023-02-15T06:43:47;-2.60;99.90
1468;DHT22;727;48.892;9.544;2023-02-15T06:46:14;-2.60;99.90
1468;DHT22;727;48.892;9.544;2023-02-15T06:48:41;-2.60;99.90
1468;DHT22;727;48.892;9.544;2023-02-15T06:51:09;-2.50;99.90
1468;DHT22;727;48.892;9.544;2023-02-15T06:53:36;-2.50;99.90
1468;DHT22;727;48.892;9.544;2023-02-15T06:56:03;-2.40;99.90
1468;DHT22;727;48.892;9.544;2023-02-15T06:58:32;-2.40;99.90
1468;DHT22;727;48.892;9.544;2023-02-15T07:00:58;-2.30;99.90
1468;DHT22;727;48.892;9.544;2023-02-15T07:03:25;-2.20;99.90
1468;DHT22;727;48.892;9.544;2023-02-15T07:05:54;-2.20;99.90
1468;DHT22;727;48.892;9.544;2023-02-15T07:08:22;-2.10;99.90
1468;DHT22;727;48.892;9.544;2023-02-15T07:10:49;-2.10;99.90
1468;DHT22;727;48.892;9.544;2023-02-15T07:13:16;-2.00;99.90
1468;DHT22;727;48.892;9.544;2023-02-15T07:15:42;-2.00;99.90
1468;DHT22;727;48.892;9.544;2023-02-15T07:18:09;-1.80;99.90
1468;DHT22;727;48.892;9.544;2023-02-15T07:20:37;-1.70;99.90
1468;DHT22;727;48.892;9.544;2023-02-15T07:23:04;-0.90;99.90
1468;DHT22;727;48.892;9.544;2023-02-15T07:25:32;0.80;99.90
1468;DHT22;727;48.892;9.544;2023-02-15T07:28:00;2.50;99.90
1468;DHT22;727;48.892;9.544;2023-02-15T07:30:28;4.00;99.90
1468;DHT22;727;48.892;9.544;2023-02-15T07:32:55;5.20;99.90
1468;DHT22;727;48.892;9.544;2023-02-15T07:35:46;5.90;99.90
1468;DHT22;727;48.892;9.544;2023-02-15T07:38:13;7.30;96.70
1468;DHT22;727;48.892;9.544;2023-02-15T07:40:41;7.70;92.80
1468;DHT22;727;48.892;9.544;2023-02-15T07:43:08;8.20;89.90
1468;DHT22;727;48.892;9.544;2023-02-15T07:45:35;8.60;87.10
1468;DHT22;727;48.892;9.544;2023-02-15T07:48:02;9.10;84.10
1468;DHT22;727;48.892;9.544;2023-02-15T07:50:29;9.30;79.70
1468;DHT22;727;48.892;9.544;2023-02-15T07:52:56;9.70;77.80
1468;DHT22;727;48.892;9.544;2023-02-15T07:55:23;10.10;74.50
1468;DHT22;727;48.892;9.544;2023-02-15T07:57:52;10.30;72.90
1468;DHT22;727;48.892;9.544;2023-02-15T08:00:20;10.60;71.80
1468;DHT22;727;48.892;9.544;2023-02-15T08:02:51;10.80;69.90
1468;DHT22;727;48.892;9.544;2023-02-15T08:05:38;10.90;68.40
1468;DHT22;727;48.892;9.544;2023-02-15T08:08:06;10.90;68.50
1468;DHT22;727;48.892;9.544;2023-02-15T08:10:33;11.20;68.10
1468;DHT22;727;48.892;9.544;2023-02-15T08:13:33;11.40;65.90
1468;DHT22;727;48.892;9.544;2023-02-15T08:16:00;11.60;67.30
1468;DHT22;727;48.892;9.544;2023-02-15T08:18:26;12.30;67.50
1468;DHT22;727;48.892;9.544;2023-02-15T08:20:53;12.70;64.50
1468;DHT22;727;48.892;9.544;2023-02-15T08:23:20;13.20;62.80
1468;DHT22;727;48.892;9.544;2023-02-15T08:25:46;13.50;62.20
1468;DHT22;727;48.892;9.544;2023-02-15T08:28:16;13.80;60.70
1468;DHT22;727;48.892;9.544;2023-02-15T08:30:44;14.00;61.10
1468;DHT22;727;48.892;9.544;2023-02-15T08:33:11;13.90;60.60
1468;DHT22;727;48.892;9.544;2023-02-15T08:35:37;13.80;61.20
1468;DHT22;727;48.892;9.544;2023-02-15T08:38:04;13.40;61.80
1468;DHT22;727;48.892;9.544;2023-02-15T08:40:31;13.20;61.90
1468;DHT22;727;48.892;9.544;2023-02-15T08:42:58;13.80;62.90
1468;DHT22;727;48.892;9.544;2023-02-15T08:45:24;14.30;61.60
1468;DHT22;727;48.892;9.544;2023-02-15T08:47:52;14.90;59.70
1468;DHT22;727;48.892;9.544;2023-02-15T08:50:19;14.90;59.30
1468;DHT22;727;48.892;9.544;2023-02-15T08:52:46;14.60;59.10
1468;DHT22;727;48.892;9.544;2023-02-15T08:55:12;14.20;59.30
1468;DHT22;727;48.892;9.544;2023-02-15T08:57:40;14.50;59.60
1468;DHT22;727;48.892;9.544;2023-02-15T09:00:11;14.70;59.60
1468;DHT22;727;48.892;9.544;2023-02-15T09:02:38;14.70;59.40
1468;DHT22;727;48.892;9.544;2023-02-15T09:05:07;15.40;59.20
1468;DHT22;727;48.892;9.544;2023-02-15T09:07:34;15.20;58.10
1468;DHT22;727;48.892;9.544;2023-02-15T09:10:01;15.20;57.40
1468;DHT22;727;48.892;9.544;2023-02-15T09:12:27;15.70;58.20
1468;DHT22;727;48.892;9.544;2023-02-15T09:14:54;15.60;57.10
1468;DHT22;727;48.892;9.544;2023-02-15T09:17:21;15.70;56.70
1468;DHT22;727;48.892;9.544;2023-02-15T09:19:47;15.80;57.90
1468;DHT22;727;48.892;9.544;2023-02-15T09:22:15;16.40;56.50
1468;DHT22;727;48.892;9.544;2023-02-15T09:24:42;15.70;55.80
1468;DHT22;727;48.892;9.544;2023-02-15T09:27:09;15.70;57.30
1468;DHT22;727;48.892;9.544;2023-02-15T09:29:36;16.10;56.10
1468;DHT22;727;48.892;9.544;2023-02-15T09:32:03;16.80;55.40
1468;DHT22;727;48.892;9.544;2023-02-15T09:34:30;17.10;55.30
1468;DHT22;727;48.892;9.544;2023-02-15T09:36:57;17.50;55.70
1468;DHT22;727;48.892;9.544;2023-02-15T09:39:26;17.80;54.70
1468;DHT22;727;48.892;9.544;2023-02-15T09:42:19;18.40;52.80
1468;DHT22;727;48.892;9.544;2023-02-15T09:45:02;17.60;52.90
1468;DHT22;727;48.892;9.544;2023-02-15T09:47:53;17.60;55.30
1468;DHT22;727;48.892;9.544;2023-02-15T09:50:30;17.80;53.80
1468;DHT22;727;48.892;9.544;2023-02-15T09:53:10;18.30;52.90
1468;DHT22;727;48.892;9.544;2023-02-15T09:55:51;18.20;53.00
1468;DHT22;727;48.892;9.544;2023-02-15T09:58:27;17.90;54.20
1468;DHT22;727;48.892;9.544;2023-02-15T10:01:03;18.00;53.50
1468;DHT22;727;48.892;9.544;2023-02-15T10:03:43;18.50;52.80
1468;DHT22;727;48.892;9.544;2023-02-15T10:06:29;18.20;53.30
1468;DHT22;727;48.892;9.544;2023-02-15T10:09:25;19.60;52.10
1468;DHT22;727;48.892;9.544;2023-02-15T10:12:09;19.40;51.20
1468;DHT22;727;48.892;9.544;2023-02-15T10:15:03;19.00;51.20
1468;DHT22;727;48.892;9.544;2023-02-15T10:17:45;19.10;51.70
1468;DHT22;727;48.892;9.544;2023-02-15T10:20:24;18.90;51.80
1468;DHT22;727;48.892;9.544;2023-02-15T10:23:09;18.70;52.40
1468;DHT22;727;48.892;9.544;2023-02-15T10:25:43;18.60;51.70
1468;DHT22;727;48.892;9.544;2023-02-15T10:28:17;19.20;51.90
1468;DHT22;727;48.892;9.544;2023-02-15T10:30:47;19.20;52.40
1468;DHT22;727;48.892;9.544;2023-02-15T10:33:27;19.40;51.50
1468;DHT22;727;48.892;9.544;2023-02-15T10:36:09;20.10;50.80
1468;DHT22;727;48.892;9.544;2023-02-15T10:38:41;20.30;50.40
1468;DHT22;727;48.892;9.544;2023-02-15T10:41:18;19.90;50.80
1468;DHT22;727;48.892;9.544;2023-02-15T10:44:00;20.10;50.90
1468;DHT22;727;48.892;9.544;2023-02-15T10:46:51;20.40;50.70
1468;DHT22;727;48.892;9.544;2023-02-15T10:52:36;20.40;50.20
1468;DHT22;727;48.892;9.544;2023-02-15T10:55:12;20.80;49.60
1468;DHT22;727;48.892;9.544;2023-02-15T10:57:47;20.10;49.80
1468;DHT22;727;48.892;9.544;2023-02-15T11:00:22;20.40;49.20
1468;DHT22;727;48.892;9.544;2023-02-15T11:03:08;20.40;49.30
1468;DHT22;727;48.892;9.544;2023-02-15T11:05:42;20.70;49.40
1468;DHT22;727;48.892;9.544;2023-02-15T11:08:14;20.80;48.90
1468;DHT22;727;48.892;9.544;2023-02-15T11:10:44;21.30;48.60
1468;DHT22;727;48.892;9.544;2023-02-15T11:13:15;21.20;48.80
1468;DHT22;727;48.892;9.544;2023-02-15T11:15:47;21.60;48.50
1468;DHT22;727;48.892;9.544;2023-02-15T11:18:19;22.00;47.60
1468;DHT22;727;48.892;9.544;2023-02-15T11:20:53;22.10;46.90
1468;DHT22;727;48.892;9.544;2023-02-15T11:23:20;21.50;47.00
1468;DHT22;727;48.892;9.544;2023-02-15T11:25:55;21.70;47.20
1468;DHT22;727;48.892;9.544;2023-02-15T11:28:27;22.40;46.10
1468;DHT22;727;48.892;9.544;2023-02-15T11:31:00;22.10;45.40
1468;DHT22;727;48.892;9.544;2023-02-15T11:33:30;22.00;46.50
1468;DHT22;727;48.892;9.544;2023-02-15T11:36:05;21.80;46.70
1468;DHT22;727;48.892;9.544;2023-02-15T11:38:34;21.10;47.70
1468;DHT22;727;48.892;9.544;2023-02-15T11:41:09;21.90;47.90
1468;DHT22;727;48.892;9.544;2023-02-15T11:43:39;23.20;45.60
1468;DHT22;727;48.892;9.544;2023-02-15T11:46:10;23.20;44.40
1468;DHT22;727;48.892;9.544;2023-02-15T11:48:37;23.30;44.00
1468;DHT22;727;48.892;9.544;2023-02-15T11:51:05;23.00;44.40
1468;DHT22;727;48.892;9.544;2023-02-15T11:53:33;22.80;44.50
1468;DHT22;727;48.892;9.544;2023-02-15T11:56:02;23.20;43.20
1468;DHT22;727;48.892;9.544;2023-02-15T11:58:36;23.50;41.70
1468;DHT22;727;48.892;9.544;2023-02-15T12:01:11;23.50;41.60
1468;DHT22;727;48.892;9.544;2023-02-15T12:03:46;23.10;42.80
1468;DHT22;727;48.892;9.544;2023-02-15T12:06:20;22.90;43.60
1468;DHT22;727;48.892;9.544;2023-02-15T12:08:54;23.40;42.50
1468;DHT22;727;48.892;9.544;2023-02-15T12:11:28;24.00;41.10
1468;DHT22;727;48.892;9.544;2023-02-15T12:13:56;24.40;40.20
1468;DHT22;727;48.892;9.544;2023-02-15T12:16:25;23.80;40.20
1468;DHT22;727;48.892;9.544;2023-02-15T12:18:55;23.70;41.10
1468;DHT22;727;48.892;9.544;2023-02-15T12:21:28;23.10;41.80
1468;DHT22;727;48.892;9.544;2023-02-15T12:23:58;23.60;41.50
1468;DHT22;727;48.892;9.544;2023-02-15T12:26:28;23.10;42.10
1468;DHT22;727;48.892;9.544;2023-02-15T12:28:57;23.70;41.40
1468;DHT22;727;48.892;9.544;2023-02-15T12:31:32;23.30;42.60
1468;DHT22;727;48.892;9.544;2023-02-15T12:34:03;23.80;41.30
1468;DHT22;727;48.892;9.544;2023-02-15T12:36:33;23.90;41.40
1468;DHT22;727;48.892;9.544;2023-02-15T12:39:19;23.60;41.80
1468;DHT22;727;48.892;9.544;2023-02-15T12:42:00;24.00;41.00
1468;DHT22;727;48.892;9.544;2023-02-15T12:44:28;23.80;41.00
1468;DHT22;727;48.892;9.544;2023-02-15T12:46:59;23.50;42.00
1468;DHT22;727;48.892;9.544;2023-02-15T12:49:27;24.00;41.10
1468;DHT22;727;48.892;9.544;2023-02-15T12:51:55;24.20;40.50
1468;DHT22;727;48.892;9.544;2023-02-15T12:54:32;23.70;41.40
1468;DHT22;727;48.892;9.544;2023-02-15T12:57:14;23.60;41.70
1468;DHT22;727;48.892;9.544;2023-02-15T12:59:48;23.90;41.60
1468;DHT22;727;48.892;9.544;2023-02-15T13:02:21;24.20;41.00
1468;DHT22;727;48.892;9.544;2023-02-15T13:04:49;23.80;41.80
1468;DHT22;727;48.892;9.544;2023-02-15T13:07:28;23.60;42.80
1468;DHT22;727;48.892;9.544;2023-02-15T13:10:22;23.30;43.60
1468;DHT22;727;48.892;9.544;2023-02-15T13:12:52;23.70;42.00
1468;DHT22;727;48.892;9.544;2023-02-15T13:15:34;23.80;42.10
1468;DHT22;727;48.892;9.544;2023-02-15T13:18:05;24.00;41.50
1468;DHT22;727;48.892;9.544;2023-02-15T13:20:34;24.00;41.40
1468;DHT22;727;48.892;9.544;2023-02-15T13:23:09;24.00;41.50
1468;DHT22;727;48.892;9.544;2023-02-15T13:25:44;23.90;41.70
1468;DHT22;727;48.892;9.544;2023-02-15T13:28:17;24.00;41.40
1468;DHT22;727;48.892;9.544;2023-02-15T13:30:46;23.70;41.40
1468;DHT22;727;48.892;9.544;2023-02-15T13:33:19;23.30;42.40
1468;DHT22;727;48.892;9.544;2023-02-15T13:35:50;23.40;40.50
1468;DHT22;727;48.892;9.544;2023-02-15T13:41:16;23.00;38.10
1468;DHT22;727;48.892;9.544;2023-02-15T13:43:52;22.80;37.50
1468;DHT22;727;48.892;9.544;2023-02-15T13:46:38;22.60;37.00
1468;DHT22;727;48.892;9.544;2023-02-15T13:49:18;22.70;36.80
1468;DHT22;727;48.892;9.544;2023-02-15T13:51:55;22.20;36.10
1468;DHT22;727;48.892;9.544;2023-02-15T13:57:36;21.30;36.80
1468;DHT22;727;48.892;9.544;2023-02-15T14:00:14;21.20;38.70
1468;DHT22;727;48.892;9.544;2023-02-15T14:03:39;20.70;38.00
1468;DHT22;727;48.892;9.544;2023-02-15T14:06:33;21.00;40.20
1468;DHT22;727;48.892;9.544;2023-02-15T14:09:14;21.50;38.50
1468;DHT22;727;48.892;9.544;2023-02-15T14:11:50;21.70;39.00
1468;DHT22;727;48.892;9.544;2023-02-15T14:14:30;21.70;38.60
1468;DHT22;727;48.892;9.544;2023-02-15T14:17:12;21.80;38.10
1468;DHT22;727;48.892;9.544;2023-02-15T14:19:45;22.00;38.10
1468;DHT22;727;48.892;9.544;2023-02-15T14:22:20;22.10;37.40
1468;DHT22;727;48.892;9.544;2023-02-15T14:24:59;21.90;36.90
1468;DHT22;727;48.892;9.544;2023-02-15T14:27:39;21.00;38.70
1468;DHT22;727;48.892;9.544;2023-02-15T14:30:17;20.20;39.80
1468;DHT22;727;48.892;9.544;2023-02-15T14:32:47;19.00;41.20
1468;DHT22;727;48.892;9.544;2023-02-15T14:35:18;18.50;41.60
1468;DHT22;727;48.892;9.544;2023-02-15T14:37:50;17.70;42.50
1468;DHT22;727;48.892;9.544;2023-02-15T14:40:36;17.10;44.00
1468;DHT22;727;48.892;9.544;2023-02-15T14:43:30;16.40;44.70
1468;DHT22;727;48.892;9.544;2023-02-15T14:46:03;15.80;46.00
1468;DHT22;727;48.892;9.544;2023-02-15T14:48:38;15.40;46.60
1468;DHT22;727;48.892;9.544;2023-02-15T14:51:06;15.00;47.30
1468;DHT22;727;48.892;9.544;2023-02-15T14:53:38;14.90;48.50
1468;DHT22;727;48.892;9.544;2023-02-15T14:56:31;14.80;48.50
1468;DHT22;727;48.892;9.544;2023-02-15T15:01:42;14.60;49.20
1468;DHT22;727;48.892;9.544;2023-02-15T15:04:28;14.50;49.90
1468;DHT22;727;48.892;9.544;2023-02-15T15:07:03;14.40;49.50
1468;DHT22;727;48.892;9.544;2023-02-15T15:09:37;14.40;50.50
1468;DHT22;727;48.892;9.544;2023-02-15T15:12:35;14.40;51.20
1468;DHT22;727;48.892;9.544;2023-02-15T15:15:03;14.30;51.50
1468;DHT22;727;48.892;9.544;2023-02-15T15:17:53;14.20;52.20
1468;DHT22;727;48.892;9.544;2023-02-15T15:20:44;14.20;52.00
1468;DHT22;727;48.892;9.544;2023-02-15T15:23:42;14.10;52.50
1468;DHT22;727;48.892;9.544;2023-02-15T15:26:28;13.90;53.80
1468;DHT22;727;48.892;9.544;2023-02-15T15:28:58;13.70;54.60
1468;DHT22;727;48.892;9.544;2023-02-15T15:31:32;13.40;55.60
1468;DHT22;727;48.892;9.544;2023-02-15T15:40:30;12.30;58.80
1468;DHT22;727;48.892;9.544;2023-02-15T15:43:31;12.00;59.80
1468;DHT22;727;48.892;9.544;2023-02-15T15:49:08;11.30;62.90
1468;DHT22;727;48.892;9.544;2023-02-15T15:51:40;11.00;64.40
1468;DHT22;727;48.892;9.544;2023-02-15T15:54:14;10.70;66.20
1468;DHT22;727;48.892;9.544;2023-02-15T15:56:44;10.50;66.60
1468;DHT22;727;48.892;9.544;2023-02-15T15:59:18;10.30;68.40
1468;DHT22;727;48.892;9.544;2023-02-15T16:01:45;10.10;69.70
1468;DHT22;727;48.892;9.544;2023-02-15T16:04:21;10.00;70.50
1468;DHT22;727;48.892;9.544;2023-02-15T16:06:49;9.90;72.30
1468;DHT22;727;48.892;9.544;2023-02-15T16:09:18;9.80;72.90
1468;DHT22;727;48.892;9.544;2023-02-15T16:11:46;9.60;73.30
1468;DHT22;727;48.892;9.544;2023-02-15T16:14:17;9.40;74.60
1468;DHT22;727;48.892;9.544;2023-02-15T16:16:48;9.20;76.20
1468;DHT22;727;48.892;9.544;2023-02-15T16:19:20;9.00;77.50
1468;DHT22;727;48.892;9.544;2023-02-15T16:21:48;8.80;78.50
1468;DHT22;727;48.892;9.544;2023-02-15T16:24:24;8.60;79.70
1468;DHT22;727;48.892;9.544;2023-02-15T16:27:16;8.40;81.00
1468;DHT22;727;48.892;9.544;2023-02-15T16:29:47;8.20;82.10
1468;DHT22;727;48.892;9.544;2023-02-15T16:32:19;7.90;83.30
1468;DHT22;727;48.892;9.544;2023-02-15T16:34:56;7.70;84.60
1468;DHT22;727;48.892;9.544;2023-02-15T16:37:24;7.50;85.60
1468;DHT22;727;48.892;9.544;2023-02-15T16:39:53;7.30;87.00
1468;DHT22;727;48.892;9.544;2023-02-15T16:42:20;7.10;88.60
1468;DHT22;727;48.892;9.544;2023-02-15T16:44:51;6.90;90.00
1468;DHT22;727;48.892;9.544;2023-02-15T16:47:21;6.80;90.60
1468;DHT22;727;48.892;9.544;2023-02-15T16:49:49;6.70;91.40
1468;DHT22;727;48.892;9.544;2023-02-15T16:52:21;6.50;92.10
1468;DHT22;727;48.892;9.544;2023-02-15T16:54:54;6.40;92.80
1468;DHT22;727;48.892;9.544;2023-02-15T16:57:24;6.30;93.50
1468;DHT22;727;48.892;9.544;2023-02-15T16:59:56;6.20;94.20
1468;DHT22;727;48.892;9.544;2023-02-15T17:02:25;6.00;94.60
1468;DHT22;727;48.892;9.544;2023-02-15T17:05:06;5.90;95.30
1468;DHT22;727;48.892;9.544;2023-02-15T17:07:34;5.80;96.10
1468;DHT22;727;48.892;9.544;2023-02-15T17:10:26;5.70;96.70
1468;DHT22;727;48.892;9.544;2023-02-15T17:12:54;5.60;97.40
1468;DHT22;727;48.892;9.544;2023-02-15T17:15:29;5.50;98.00
1468;DHT22;727;48.892;9.544;2023-02-15T17:17:58;5.50;98.70
1468;DHT22;727;48.892;9.544;2023-02-15T17:20:27;5.40;99.20